sensor_id;sensor_type;location;lat;lon;timestamp;P1;durP1;ratioP1;P2;durP2;ratioP2
29414;SDS011;20303;48.302;11.914;2023-02-18T00:06:18;1.60;;;1.30;;
29414;SDS011;20303;48.302;11.914;2023-02-18T00:16:21;2.08;;;1.50;;
29414;SDS011;20303;48.302;11.914;2023-02-18T00:26:23;1.65;;;1.30;;
29414;SDS011;20303;48.302;11.914;2023-02-18T00:36:24;2.05;;;1.38;;
29414;SDS011;20303;48.302;11.914;2023-02-18T00:46:26;2.00;;;1.35;;
29414;SDS011;20303;48.302;11.914;2023-02-18T00:56:28;1.95;;;1.20;;
29414;SDS011;20303;48.302;11.914;2023-02-18T01:06:29;1.55;;;1.30;;
29414;SDS011;20303;48.302;11.914;2023-02-18T01:16:30;2.47;;;1.23;;
29414;SDS011;20303;48.302;11.914;2023-02-18T01:26:31;1.90;;;1.30;;
29414;SDS011;20303;48.302;11.914;2023-02-18T01:36:32;1.60;;;1.15;;
29414;SDS011;20303;48.302;11.914;2023-02-18T01:46:33;1.58;;;1.27;;
29414;SDS011;20303;48.302;11.914;2023-02-18T01:56:36;2.15;;;1.20;;
29414;SDS011;20303;48.302;11.914;2023-02-18T02:06:46;1.40;;;1.20;;
29414;SDS011;20303;48.302;11.914;2023-02-18T02:47:55;2.03;;;1.20;;
29414;SDS011;20303;48.302;11.914;2023-02-18T02:58:17;2.08;;;1.48;;
29414;SDS011;20303;48.302;11.914;2023-02-18T03:18:44;1.92;;;1.20;;
29414;SDS011;20303;48.302;11.914;2023-02-18T03:29:05;2.28;;;1.30;;
29414;SDS011;20303;48.302;11.914;2023-02-18T03:39:13;1.80;;;1.08;;
29414;SDS011;20303;48.302;11.914;2023-02-18T03:49:15;1.75;;;1.10;;
29414;SDS011;20303;48.302;11.914;2023-02-18T03:59:16;1.60;;;1.17;;
29414;SDS011;20303;48.302;11.914;2023-02-18T04:09:17;1.33;;;0.98;;
29414;SDS011;20303;48.302;11.914;2023-02-18T04:19:18;1.92;;;1.10;;
29414;SDS011;20303;48.302;11.914;2023-02-18T04:29:20;2.35;;;1.20;;
29414;SDS011;20303;48.302;11.914;2023-02-18T04:39:21;1.50;;;1.10;;
29414;SDS011;20303;48.302;11.914;2023-02-18T04:49:22;1.00;;;0.90;;
29414;SDS011;20303;48.302;11.914;2023-02-18T04:59:23;1.75;;;1.00;;
29414;SDS011;20303;48.302;11.914;2023-02-18T05:09:24;1.00;;;0.90;;
29414;SDS011;20303;48.302;11.914;2023-02-18T05:19:25;1.35;;;1.00;;
29414;SDS011;20303;48.302;11.914;2023-02-18T05:29:26;1.50;;;0.80;;
29414;SDS011;20303;48.302;11.914;2023-02-18T05:39:27;1.35;;;0.80;;
29414;SDS011;20303;48.302;11.914;2023-02-18T05:49:30;1.52;;;0.98;;
29414;SDS011;20303;48.302;11.914;2023-02-18T05:59:31;1.20;;;1.00;;
29414;SDS011;20303;48.302;11.914;2023-02-18T06:09:32;0.98;;;0.88;;
29414;SDS011;20303;48.302;11.914;2023-02-18T06:19:33;0.85;;;0.85;;
29414;SDS011;20303;48.302;11.914;2023-02-18T06:29:35;2.22;;;1.00;;
29414;SDS011;20303;48.302;11.914;2023-02-18T06:39:37;1.00;;;0.90;;
29414;SDS011;20303;48.302;11.914;2023-02-18T06:49:38;0.80;;;0.80;;
29414;SDS011;20303;48.302;11.914;2023-02-18T06:59:39;1.00;;;0.88;;
29414;SDS011;20303;48.302;11.914;2023-02-18T07:09:40;0.98;;;0.73;;
29414;SDS011;20303;48.302;11.914;2023-02-18T07:19:41;0.70;;;0.70;;
29414;SDS011;20303;48.302;11.914;2023-02-18T07:29:42;1.83;;;0.80;;
29414;SDS011;20303;48.302;11.914;2023-02-18T07:39:43;3.97;;;0.93;;
29414;SDS011;20303;48.302;11.914;2023-02-18T07:49:45;31.80;;;2.47;;
29414;SDS011;20303;48.302;11.914;2023-02-18T07:59:46;14.35;;;2.03;;
29414;SDS011;20303;48.302;11.914;2023-02-18T08:09:47;11.43;;;1.60;;
29414;SDS011;20303;48.302;11.914;2023-02-18T08:19:49;7.07;;;1.75;;
29414;SDS011;20303;48.302;11.914;2023-02-18T08:29:50;6.72;;;1.50;;
29414;SDS011;20303;48.302;11.914;2023-02-18T08:39:51;2.97;;;1.23;;
29414;SDS011;20303;48.302;11.914;2023-02-18T08:49:53;2.78;;;1.00;;
29414;SDS011;20303;48.302;11.914;2023-02-18T08:59:54;4.32;;;1.05;;
29414;SDS011;20303;48.302;11.914;2023-02-18T09:09:55;3.63;;;1.20;;
29414;SDS011;20303;48.302;11.914;2023-02-18T09:19:56;1.77;;;1.00;;
29414;SDS011;20303;48.302;11.914;2023-02-18T09:29:58;3.85;;;1.10;;
29414;SDS011;20303;48.302;11.914;2023-02-18T09:39:59;4.88;;;1.10;;
29414;SDS011;20303;48.302;11.914;2023-02-18T09:50:16;3.25;;;0.88;;
29414;SDS011;20303;48.302;11.914;2023-02-18T10:00:42;2.83;;;0.90;;
29414;SDS011;20303;48.302;11.914;2023-02-18T10:11:08;3.13;;;0.80;;
29414;SDS011;20303;48.302;11.914;2023-02-18T10:21:17;1.67;;;0.90;;
29414;SDS011;20303;48.302;11.914;2023-02-18T10:31:39;4.18;;;0.82;;
29414;SDS011;20303;48.302;11.914;2023-02-18T10:41:54;2.13;;;0.80;;
29414;SDS011;20303;48.302;11.914;2023-02-18T10:52:20;2.58;;;0.80;;
29414;SDS011;20303;48.302;11.914;2023-02-18T11:02:22;2.85;;;0.95;;
29414;SDS011;20303;48.302;11.914;2023-02-18T11:12:29;1.00;;;0.65;;
29414;SDS011;20303;48.302;11.914;2023-02-18T11:22:34;2.40;;;0.90;;
29414;SDS011;20303;48.302;11.914;2023-02-18T11:32:40;2.03;;;0.85;;
29414;SDS011;20303;48.302;11.914;2023-02-18T11:42:42;2.38;;;0.70;;
29414;SDS011;20303;48.302;11.914;2023-02-18T11:52:47;2.50;;;0.80;;
29414;SDS011;20303;48.302;11.914;2023-02-18T12:02:50;1.67;;;0.90;;
29414;SDS011;20303;48.302;11.914;2023-02-18T12:13:02;2.75;;;0.70;;
29414;SDS011;20303;48.302;11.914;2023-02-18T13:14:59;8.93;;;3.40;;
29414;SDS011;20303;48.302;11.914;2023-02-18T13:25:10;7.43;;;3.45;;
29414;SDS011;20303;48.302;11.914;2023-02-18T13:55:34;9.60;;;4.10;;
29414;SDS011;20303;48.302;11.914;2023-02-18T14:05:58;9.98;;;4.28;;
29414;SDS011;20303;48.302;11.914;2023-02-18T14:15:59;9.82;;;4.30;;
29414;SDS011;20303;48.302;11.914;2023-02-18T14:56:20;8.75;;;3.53;;
29414;SDS011;20303;48.302;11.914;2023-02-18T15:06:22;7.15;;;3.13;;
29414;SDS011;20303;48.302;11.914;2023-02-18T15:16:30;6.93;;;3.10;;
29414;SDS011;20303;48.302;11.914;2023-02-18T15:26:33;8.40;;;2.55;;
29414;SDS011;20303;48.302;11.914;2023-02-18T15:36:36;11.10;;;3.17;;
29414;SDS011;20303;48.302;11.914;2023-02-18T15:46:37;7.43;;;2.70;;
29414;SDS011;20303;48.302;11.914;2023-02-18T15:56:39;6.35;;;2.63;;
29414;SDS011;20303;48.302;11.914;2023-02-18T16:06:45;8.73;;;2.70;;
29414;SDS011;20303;48.302;11.914;2023-02-18T16:17:07;6.15;;;2.72;;
29414;SDS011;20303;48.302;11.914;2023-02-18T16:37:27;7.32;;;2.42;;
29414;SDS011;20303;48.302;11.914;2023-02-18T16:47:40;9.30;;;2.60;;
29414;SDS011;20303;48.302;11.914;2023-02-18T16:57:43;11.07;;;2.80;;
29414;SDS011;20303;48.302;11.914;2023-02-18T17:07:45;10.77;;;2.90;;
29414;SDS011;20303;48.302;11.914;2023-02-18T17:17:46;14.07;;;3.00;;
29414;SDS011;20303;48.302;11.914;2023-02-18T17:27:47;14.55;;;3.08;;
29414;SDS011;20303;48.302;11.914;2023-02-18T17:37:48;8.40;;;2.72;;
29414;SDS011;20303;48.302;11.914;2023-02-18T17:47:49;11.10;;;3.00;;
29414;SDS011;20303;48.302;11.914;2023-02-18T17:57:50;11.90;;;3.13;;
29414;SDS011;20303;48.302;11.914;2023-02-18T18:07:52;9.63;;;2.90;;
29414;SDS011;20303;48.302;11.914;2023-02-18T18:17:53;10.27;;;2.83;;
29414;SDS011;20303;48.302;11.914;2023-02-18T18:27:55;10.18;;;2.80;;
29414;SDS011;20303;48.302;11.914;2023-02-18T18:37:57;9.60;;;2.80;;
29414;SDS011;20303;48.302;11.914;2023-02-18T18:47:58;10.10;;;2.92;;
29414;SDS011;20303;48.302;11.914;2023-02-18T18:58:00;12.10;;;2.90;;
29414;SDS011;20303;48.302;11.914;2023-02-18T19:08:01;9.15;;;2.80;;
29414;SDS011;20303;48.302;11.914;2023-02-18T19:18:02;11.63;;;2.85;;
29414;SDS011;20303;48.302;11.914;2023-02-18T19:28:04;9.68;;;2.40;;
29414;SDS011;20303;48.302;11.914;2023-02-18T19:38:06;10.57;;;2.53;;
29414;SDS011;20303;48.302;11.914;2023-02-18T19:48:09;9.10;;;2.33;;
29414;SDS011;20303;48.302;11.914;2023-02-18T19:58:10;6.40;;;2.40;;
29414;SDS011;20303;48.302;11.914;2023-02-18T20:08:11;7.57;;;2.17;;
29414;SDS011;20303;48.302;11.914;2023-02-18T20:18:13;6.10;;;2.50;;
29414;SDS011;20303;48.302;11.914;2023-02-18T20:28:14;6.43;;;2.30;;
29414;SDS011;20303;48.302;11.914;2023-02-18T20:38:15;6.20;;;2.22;;
29414;SDS011;20303;48.302;11.914;2023-02-18T20:48:16;4.90;;;1.90;;
29414;SDS011;20303;48.302;11.914;2023-02-18T20:58:17;5.05;;;2.10;;
29414;SDS011;20303;48.302;11.914;2023-02-18T21:08:18;6.10;;;2.10;;
29414;SDS011;20303;48.302;11.914;2023-02-18T21:18:19;6.28;;;2.17;;
29414;SDS011;20303;48.302;11.914;2023-02-18T21:28:20;5.10;;;1.90;;
29414;SDS011;20303;48.302;11.914;2023-02-18T21:38:21;5.88;;;2.20;;
29414;SDS011;20303;48.302;11.914;2023-02-18T21:48:22;4.68;;;1.85;;
29414;SDS011;20303;48.302;11.914;2023-02-18T21:58:42;5.15;;;1.70;;
29414;SDS011;20303;48.302;11.914;2023-02-18T22:08:43;4.40;;;1.70;;
29414;SDS011;20303;48.302;11.914;2023-02-18T22:18:44;3.53;;;1.67;;
29414;SDS011;20303;48.302;11.914;2023-02-18T22:28:51;4.30;;;1.55;;
29414;SDS011;20303;48.302;11.914;2023-02-18T22:38:53;5.32;;;2.00;;
29414;SDS011;20303;48.302;11.914;2023-02-18T22:48:55;4.80;;;1.80;;
29414;SDS011;20303;48.302;11.914;2023-02-18T22:58:56;2.63;;;1.42;;
29414;SDS011;20303;48.302;11.914;2023-02-18T23:08:58;3.30;;;1.40;;
29414;SDS011;20303;48.302;11.914;2023-02-18T23:18:59;4.40;;;1.40;;
29414;SDS011;20303;48.302;11.914;2023-02-18T23:29:00;2.28;;;1.38;;
29414;SDS011;20303;48.302;11.914;2023-02-18T23:39:03;2.75;;;1.40;;
29414;SDS011;20303;48.302;11.914;2023-02-18T23:49:05;4.63;;;1.40;;
29414;SDS011;20303;48.302;11.914;2023-02-18T23:59:06;2.00;;;1.20;;
